sensor_id;sensor_type;location;lat;lon;timestamp;P1;durP1;ratioP1;P2;durP2;ratioP2
40913;SDS011;26638;50.990;4.676;2024-02-16T00:01:34;6.15;;;3.15;;
40913;SDS011;26638;50.990;4.676;2024-02-16T00:04:01;6.78;;;2.88;;
40913;SDS011;26638;50.990;4.676;2024-02-16T00:06:26;7.90;;;3.20;;
40913;SDS011;26638;50.990;4.676;2024-02-16T00:08:52;6.18;;;3.03;;
40913;SDS011;26638;50.990;4.676;2024-02-16T00:11:18;7.00;;;2.90;;
40913;SDS011;26638;50.990;4.676;2024-02-16T00:16:28;4.97;;;3.17;;
40913;SDS011;26638;50.990;4.676;2024-02-16T00:18:54;8.63;;;3.00;;
40913;SDS011;26638;50.990;4.676;2024-02-16T00:21:19;7.30;;;3.27;;
40913;SDS011;26638;50.990;4.676;2024-02-16T00:23:45;10.60;;;3.05;;
40913;SDS011;26638;50.990;4.676;2024-02-16T00:26:11;6.60;;;3.10;;
40913;SDS011;26638;50.990;4.676;2024-02-16T00:28:37;7.60;;;3.03;;
40913;SDS011;26638;50.990;4.676;2024-02-16T00:33:47;8.53;;;3.20;;
40913;SDS011;26638;50.990;4.676;2024-02-16T00:36:13;11.07;;;3.38;;
40913;SDS011;26638;50.990;4.676;2024-02-16T00:38:39;9.15;;;3.60;;
40913;SDS011;26638;50.990;4.676;2024-02-16T00:41:05;9.47;;;2.83;;
40913;SDS011;26638;50.990;4.676;2024-02-16T00:43:30;7.28;;;2.88;;
40913;SDS011;26638;50.990;4.676;2024-02-16T00:45:56;10.77;;;3.33;;
40913;SDS011;26638;50.990;4.676;2024-02-16T00:48:21;9.82;;;3.75;;
40913;SDS011;26638;50.990;4.676;2024-02-16T00:50:49;6.93;;;3.70;;
40913;SDS011;26638;50.990;4.676;2024-02-16T00:53:15;8.93;;;3.40;;
40913;SDS011;26638;50.990;4.676;2024-02-16T00:55:40;12.27;;;3.77;;
40913;SDS011;26638;50.990;4.676;2024-02-16T00:58:07;9.00;;;3.30;;
40913;SDS011;26638;50.990;4.676;2024-02-16T01:00:51;6.93;;;3.57;;
40913;SDS011;26638;50.990;4.676;2024-02-16T01:03:17;8.82;;;3.78;;
40913;SDS011;26638;50.990;4.676;2024-02-16T01:05:42;8.57;;;3.97;;
40913;SDS011;26638;50.990;4.676;2024-02-16T01:08:26;8.27;;;4.20;;
40913;SDS011;26638;50.990;4.676;2024-02-16T01:10:52;8.02;;;3.72;;
40913;SDS011;26638;50.990;4.676;2024-02-16T01:13:18;8.13;;;3.90;;
40913;SDS011;26638;50.990;4.676;2024-02-16T01:15:44;8.18;;;4.15;;
40913;SDS011;26638;50.990;4.676;2024-02-16T01:18:09;7.23;;;4.10;;
40913;SDS011;26638;50.990;4.676;2024-02-16T01:20:35;10.23;;;4.35;;
40913;SDS011;26638;50.990;4.676;2024-02-16T01:23:01;8.70;;;4.05;;
40913;SDS011;26638;50.990;4.676;2024-02-16T01:25:27;10.63;;;3.72;;
40913;SDS011;26638;50.990;4.676;2024-02-16T01:27:53;8.32;;;3.92;;
40913;SDS011;26638;50.990;4.676;2024-02-16T01:30:19;6.13;;;3.33;;
40913;SDS011;26638;50.990;4.676;2024-02-16T01:32:46;8.00;;;3.28;;
40913;SDS011;26638;50.990;4.676;2024-02-16T01:35:12;8.18;;;3.00;;
40913;SDS011;26638;50.990;4.676;2024-02-16T01:37:56;6.90;;;3.10;;
40913;SDS011;26638;50.990;4.676;2024-02-16T01:40:22;10.07;;;3.70;;
40913;SDS011;26638;50.990;4.676;2024-02-16T01:42:47;6.80;;;3.50;;
40913;SDS011;26638;50.990;4.676;2024-02-16T01:45:13;7.40;;;3.37;;
40913;SDS011;26638;50.990;4.676;2024-02-16T01:47:39;5.10;;;3.10;;
40913;SDS011;26638;50.990;4.676;2024-02-16T01:50:08;8.23;;;3.00;;
40913;SDS011;26638;50.990;4.676;2024-02-16T01:52:34;7.82;;;3.20;;
40913;SDS011;26638;50.990;4.676;2024-02-16T01:55:02;6.70;;;3.38;;
40913;SDS011;26638;50.990;4.676;2024-02-16T01:57:47;7.63;;;3.37;;
40913;SDS011;26638;50.990;4.676;2024-02-16T02:00:14;7.10;;;3.00;;
40913;SDS011;26638;50.990;4.676;2024-02-16T02:05:45;7.15;;;3.20;;
40913;SDS011;26638;50.990;4.676;2024-02-16T02:08:11;5.22;;;2.65;;
40913;SDS011;26638;50.990;4.676;2024-02-16T02:10:38;4.85;;;2.80;;
40913;SDS011;26638;50.990;4.676;2024-02-16T02:13:03;6.73;;;3.00;;
40913;SDS011;26638;50.990;4.676;2024-02-16T02:15:29;8.30;;;2.83;;
40913;SDS011;26638;50.990;4.676;2024-02-16T02:17:55;7.77;;;3.13;;
40913;SDS011;26638;50.990;4.676;2024-02-16T02:20:39;6.32;;;2.90;;
40913;SDS011;26638;50.990;4.676;2024-02-16T02:23:05;6.25;;;2.90;;
40913;SDS011;26638;50.990;4.676;2024-02-16T02:25:31;5.93;;;3.00;;
40913;SDS011;26638;50.990;4.676;2024-02-16T02:27:56;7.70;;;3.20;;
40913;SDS011;26638;50.990;4.676;2024-02-16T02:30:22;7.20;;;3.17;;
40913;SDS011;26638;50.990;4.676;2024-02-16T02:32:49;7.28;;;3.30;;
40913;SDS011;26638;50.990;4.676;2024-02-16T02:35:16;6.70;;;3.13;;
40913;SDS011;26638;50.990;4.676;2024-02-16T02:37:42;6.22;;;2.97;;
40913;SDS011;26638;50.990;4.676;2024-02-16T02:40:08;5.27;;;2.93;;
40913;SDS011;26638;50.990;4.676;2024-02-16T02:42:40;6.50;;;3.08;;
40913;SDS011;26638;50.990;4.676;2024-02-16T02:45:25;5.60;;;2.90;;
40913;SDS011;26638;50.990;4.676;2024-02-16T02:47:51;6.20;;;3.00;;
40913;SDS011;26638;50.990;4.676;2024-02-16T02:50:16;7.38;;;3.03;;
40913;SDS011;26638;50.990;4.676;2024-02-16T02:52:44;6.78;;;3.10;;
40913;SDS011;26638;50.990;4.676;2024-02-16T02:55:10;6.75;;;3.15;;
40913;SDS011;26638;50.990;4.676;2024-02-16T02:57:36;9.23;;;3.37;;
40913;SDS011;26638;50.990;4.676;2024-02-16T03:00:02;5.93;;;3.15;;
40913;SDS011;26638;50.990;4.676;2024-02-16T03:02:35;6.70;;;3.22;;
40913;SDS011;26638;50.990;4.676;2024-02-16T03:05:11;6.93;;;3.22;;
40913;SDS011;26638;50.990;4.676;2024-02-16T03:07:36;7.57;;;3.20;;
40913;SDS011;26638;50.990;4.676;2024-02-16T03:10:20;6.68;;;3.50;;
40913;SDS011;26638;50.990;4.676;2024-02-16T03:12:48;5.07;;;2.90;;
40913;SDS011;26638;50.990;4.676;2024-02-16T03:15:15;8.80;;;3.60;;
40913;SDS011;26638;50.990;4.676;2024-02-16T03:17:41;8.32;;;3.33;;
40913;SDS011;26638;50.990;4.676;2024-02-16T03:20:07;6.78;;;3.25;;
40913;SDS011;26638;50.990;4.676;2024-02-16T03:22:33;8.82;;;3.22;;
40913;SDS011;26638;50.990;4.676;2024-02-16T03:24:58;7.23;;;2.93;;
40913;SDS011;26638;50.990;4.676;2024-02-16T03:27:24;8.55;;;3.70;;
40913;SDS011;26638;50.990;4.676;2024-02-16T03:29:50;8.67;;;3.27;;
40913;SDS011;26638;50.990;4.676;2024-02-16T03:35:01;6.93;;;2.92;;
40913;SDS011;26638;50.990;4.676;2024-02-16T03:37:45;5.80;;;3.13;;
40913;SDS011;26638;50.990;4.676;2024-02-16T03:42:55;7.35;;;2.95;;
40913;SDS011;26638;50.990;4.676;2024-02-16T03:45:23;7.10;;;3.50;;
40913;SDS011;26638;50.990;4.676;2024-02-16T03:47:49;11.35;;;3.38;;
40913;SDS011;26638;50.990;4.676;2024-02-16T03:50:17;8.50;;;3.37;;
40913;SDS011;26638;50.990;4.676;2024-02-16T03:52:43;8.30;;;3.47;;
40913;SDS011;26638;50.990;4.676;2024-02-16T03:55:09;7.53;;;3.13;;
40913;SDS011;26638;50.990;4.676;2024-02-16T03:57:35;11.07;;;3.47;;
40913;SDS011;26638;50.990;4.676;2024-02-16T04:00:01;8.60;;;3.38;;
40913;SDS011;26638;50.990;4.676;2024-02-16T04:02:30;6.32;;;3.13;;
40913;SDS011;26638;50.990;4.676;2024-02-16T04:04:56;9.07;;;3.25;;
40913;SDS011;26638;50.990;4.676;2024-02-16T04:07:23;7.55;;;3.53;;
40913;SDS011;26638;50.990;4.676;2024-02-16T04:09:49;8.17;;;3.23;;
40913;SDS011;26638;50.990;4.676;2024-02-16T04:12:15;7.57;;;3.30;;
40913;SDS011;26638;50.990;4.676;2024-02-16T04:14:41;8.80;;;3.38;;
40913;SDS011;26638;50.990;4.676;2024-02-16T04:17:07;10.35;;;3.60;;
40913;SDS011;26638;50.990;4.676;2024-02-16T04:19:33;7.13;;;3.33;;
40913;SDS011;26638;50.990;4.676;2024-02-16T04:22:18;7.13;;;3.05;;
40913;SDS011;26638;50.990;4.676;2024-02-16T04:27:31;12.87;;;3.63;;
40913;SDS011;26638;50.990;4.676;2024-02-16T04:29:57;8.15;;;3.35;;
40913;SDS011;26638;50.990;4.676;2024-02-16T04:32:22;8.93;;;3.53;;
40913;SDS011;26638;50.990;4.676;2024-02-16T04:34:50;10.63;;;3.70;;
40913;SDS011;26638;50.990;4.676;2024-02-16T04:37:22;9.23;;;3.80;;
40913;SDS011;26638;50.990;4.676;2024-02-16T04:39:48;8.65;;;3.17;;
40913;SDS011;26638;50.990;4.676;2024-02-16T04:42:14;9.35;;;3.65;;
40913;SDS011;26638;50.990;4.676;2024-02-16T04:44:41;8.55;;;3.30;;
40913;SDS011;26638;50.990;4.676;2024-02-16T04:47:07;8.93;;;3.90;;
40913;SDS011;26638;50.990;4.676;2024-02-16T04:49:32;10.73;;;3.87;;
40913;SDS011;26638;50.990;4.676;2024-02-16T04:51:58;10.93;;;3.70;;
40913;SDS011;26638;50.990;4.676;2024-02-16T04:54:24;8.85;;;3.58;;
40913;SDS011;26638;50.990;4.676;2024-02-16T04:57:08;9.93;;;3.70;;
40913;SDS011;26638;50.990;4.676;2024-02-16T04:59:34;11.40;;;3.77;;
40913;SDS011;26638;50.990;4.676;2024-02-16T05:01:59;9.35;;;4.03;;
40913;SDS011;26638;50.990;4.676;2024-02-16T05:04:25;13.27;;;3.63;;
40913;SDS011;26638;50.990;4.676;2024-02-16T05:06:51;9.68;;;3.78;;
40913;SDS011;26638;50.990;4.676;2024-02-16T05:09:17;7.97;;;3.75;;
40913;SDS011;26638;50.990;4.676;2024-02-16T05:11:43;7.47;;;3.67;;
40913;SDS011;26638;50.990;4.676;2024-02-16T05:14:10;6.50;;;3.42;;
40913;SDS011;26638;50.990;4.676;2024-02-16T05:16:46;11.40;;;3.70;;
40913;SDS011;26638;50.990;4.676;2024-02-16T05:19:12;7.95;;;3.30;;
40913;SDS011;26638;50.990;4.676;2024-02-16T05:21:56;11.17;;;3.80;;
40913;SDS011;26638;50.990;4.676;2024-02-16T05:24:43;8.55;;;3.65;;
40913;SDS011;26638;50.990;4.676;2024-02-16T05:27:09;6.97;;;3.50;;
40913;SDS011;26638;50.990;4.676;2024-02-16T05:29:36;7.57;;;3.70;;
40913;SDS011;26638;50.990;4.676;2024-02-16T05:34:47;10.25;;;3.63;;
40913;SDS011;26638;50.990;4.676;2024-02-16T05:37:13;9.27;;;3.50;;
40913;SDS011;26638;50.990;4.676;2024-02-16T05:39:40;10.90;;;3.97;;
40913;SDS011;26638;50.990;4.676;2024-02-16T05:42:19;8.70;;;3.63;;
40913;SDS011;26638;50.990;4.676;2024-02-16T05:44:47;8.55;;;3.42;;
40913;SDS011;26638;50.990;4.676;2024-02-16T05:49:57;8.88;;;3.60;;
40913;SDS011;26638;50.990;4.676;2024-02-16T05:52:23;8.45;;;3.75;;
40913;SDS011;26638;50.990;4.676;2024-02-16T05:54:49;8.97;;;3.70;;
40913;SDS011;26638;50.990;4.676;2024-02-16T05:57:15;13.52;;;4.35;;
40913;SDS011;26638;50.990;4.676;2024-02-16T05:59:41;10.00;;;3.90;;
40913;SDS011;26638;50.990;4.676;2024-02-16T06:02:08;9.95;;;3.95;;
40913;SDS011;26638;50.990;4.676;2024-02-16T06:04:35;10.32;;;3.78;;
40913;SDS011;26638;50.990;4.676;2024-02-16T06:07:01;10.32;;;3.42;;
40913;SDS011;26638;50.990;4.676;2024-02-16T06:09:27;13.90;;;3.80;;
40913;SDS011;26638;50.990;4.676;2024-02-16T06:11:59;8.60;;;3.75;;
40913;SDS011;26638;50.990;4.676;2024-02-16T06:14:29;6.80;;;3.25;;
40913;SDS011;26638;50.990;4.676;2024-02-16T06:16:56;9.68;;;3.70;;
40913;SDS011;26638;50.990;4.676;2024-02-16T06:19:22;11.00;;;3.90;;
40913;SDS011;26638;50.990;4.676;2024-02-16T06:21:47;9.23;;;3.50;;
40913;SDS011;26638;50.990;4.676;2024-02-16T06:24:13;10.20;;;4.00;;
40913;SDS011;26638;50.990;4.676;2024-02-16T06:26:39;10.20;;;4.00;;
40913;SDS011;26638;50.990;4.676;2024-02-16T06:29:04;9.82;;;3.88;;
40913;SDS011;26638;50.990;4.676;2024-02-16T06:31:30;8.13;;;4.40;;
40913;SDS011;26638;50.990;4.676;2024-02-16T06:33:55;11.00;;;4.50;;
40913;SDS011;26638;50.990;4.676;2024-02-16T06:36:22;11.47;;;4.17;;
40913;SDS011;26638;50.990;4.676;2024-02-16T06:38:48;11.50;;;4.47;;
40913;SDS011;26638;50.990;4.676;2024-02-16T06:41:13;12.00;;;4.20;;
40913;SDS011;26638;50.990;4.676;2024-02-16T06:43:39;13.05;;;4.43;;
40913;SDS011;26638;50.990;4.676;2024-02-16T06:46:05;14.10;;;4.70;;
40913;SDS011;26638;50.990;4.676;2024-02-16T06:48:31;14.10;;;4.80;;
40913;SDS011;26638;50.990;4.676;2024-02-16T06:50:56;13.10;;;4.80;;
40913;SDS011;26638;50.990;4.676;2024-02-16T06:53:22;11.53;;;4.90;;
40913;SDS011;26638;50.990;4.676;2024-02-16T06:55:48;16.77;;;5.10;;
40913;SDS011;26638;50.990;4.676;2024-02-16T06:58:15;15.35;;;5.18;;
40913;SDS011;26638;50.990;4.676;2024-02-16T07:00:41;13.07;;;4.60;;
40913;SDS011;26638;50.990;4.676;2024-02-16T07:03:07;17.17;;;4.78;;
40913;SDS011;26638;50.990;4.676;2024-02-16T07:05:33;11.52;;;4.80;;
40913;SDS011;26638;50.990;4.676;2024-02-16T07:07:59;11.20;;;4.80;;
40913;SDS011;26638;50.990;4.676;2024-02-16T07:10:25;11.10;;;5.00;;
40913;SDS011;26638;50.990;4.676;2024-02-16T07:12:52;12.10;;;5.10;;
40913;SDS011;26638;50.990;4.676;2024-02-16T07:15:18;13.20;;;5.63;;
40913;SDS011;26638;50.990;4.676;2024-02-16T07:17:44;10.95;;;4.97;;
40913;SDS011;26638;50.990;4.676;2024-02-16T07:20:09;13.82;;;5.68;;
40913;SDS011;26638;50.990;4.676;2024-02-16T07:22:35;17.75;;;6.13;;
40913;SDS011;26638;50.990;4.676;2024-02-16T07:25:01;15.67;;;5.83;;
40913;SDS011;26638;50.990;4.676;2024-02-16T07:27:46;13.03;;;5.80;;
40913;SDS011;26638;50.990;4.676;2024-02-16T07:30:11;14.63;;;6.20;;
40913;SDS011;26638;50.990;4.676;2024-02-16T07:32:38;18.45;;;6.43;;
40913;SDS011;26638;50.990;4.676;2024-02-16T07:35:04;18.37;;;6.10;;
40913;SDS011;26638;50.990;4.676;2024-02-16T07:37:29;16.98;;;6.30;;
40913;SDS011;26638;50.990;4.676;2024-02-16T07:39:55;18.47;;;6.40;;
40913;SDS011;26638;50.990;4.676;2024-02-16T07:42:21;13.82;;;6.40;;
40913;SDS011;26638;50.990;4.676;2024-02-16T07:44:47;17.48;;;6.65;;
40913;SDS011;26638;50.990;4.676;2024-02-16T07:47:31;17.30;;;6.40;;
40913;SDS011;26638;50.990;4.676;2024-02-16T07:49:57;13.68;;;5.93;;
40913;SDS011;26638;50.990;4.676;2024-02-16T07:52:23;14.20;;;6.30;;
40913;SDS011;26638;50.990;4.676;2024-02-16T07:54:48;15.60;;;6.20;;
40913;SDS011;26638;50.990;4.676;2024-02-16T07:57:16;15.60;;;5.88;;
40913;SDS011;26638;50.990;4.676;2024-02-16T08:00:01;14.82;;;6.07;;
40913;SDS011;26638;50.990;4.676;2024-02-16T08:02:28;17.27;;;6.22;;
40913;SDS011;26638;50.990;4.676;2024-02-16T08:07:39;15.60;;;6.33;;
40913;SDS011;26638;50.990;4.676;2024-02-16T08:10:23;15.90;;;6.30;;
40913;SDS011;26638;50.990;4.676;2024-02-16T08:12:50;16.90;;;6.23;;
40913;SDS011;26638;50.990;4.676;2024-02-16T08:15:16;14.25;;;5.85;;
40913;SDS011;26638;50.990;4.676;2024-02-16T08:18:00;16.75;;;6.45;;
40913;SDS011;26638;50.990;4.676;2024-02-16T08:20:45;18.83;;;6.65;;
40913;SDS011;26638;50.990;4.676;2024-02-16T08:23:29;15.50;;;6.20;;
40913;SDS011;26638;50.990;4.676;2024-02-16T08:25:56;17.43;;;6.90;;
40913;SDS011;26638;50.990;4.676;2024-02-16T08:28:22;18.38;;;6.85;;
40913;SDS011;26638;50.990;4.676;2024-02-16T08:30:48;18.17;;;6.90;;
40913;SDS011;26638;50.990;4.676;2024-02-16T08:33:14;15.05;;;6.43;;
40913;SDS011;26638;50.990;4.676;2024-02-16T08:35:40;16.97;;;6.73;;
40913;SDS011;26638;50.990;4.676;2024-02-16T08:38:06;16.48;;;6.68;;
40913;SDS011;26638;50.990;4.676;2024-02-16T08:40:38;16.52;;;6.95;;
40913;SDS011;26638;50.990;4.676;2024-02-16T08:43:04;20.67;;;7.00;;
40913;SDS011;26638;50.990;4.676;2024-02-16T08:45:30;24.73;;;7.22;;
40913;SDS011;26638;50.990;4.676;2024-02-16T08:47:56;21.23;;;7.53;;
40913;SDS011;26638;50.990;4.676;2024-02-16T08:50:22;16.95;;;7.32;;
40913;SDS011;26638;50.990;4.676;2024-02-16T08:52:49;24.30;;;8.40;;
40913;SDS011;26638;50.990;4.676;2024-02-16T08:55:15;26.20;;;8.60;;
40913;SDS011;26638;50.990;4.676;2024-02-16T08:57:41;25.42;;;8.93;;
40913;SDS011;26638;50.990;4.676;2024-02-16T09:00:07;18.92;;;8.77;;
40913;SDS011;26638;50.990;4.676;2024-02-16T09:02:33;21.05;;;8.75;;
40913;SDS011;26638;50.990;4.676;2024-02-16T09:04:58;21.20;;;9.48;;
40913;SDS011;26638;50.990;4.676;2024-02-16T09:07:24;25.90;;;9.47;;
40913;SDS011;26638;50.990;4.676;2024-02-16T09:09:51;22.80;;;9.00;;
40913;SDS011;26638;50.990;4.676;2024-02-16T09:12:17;21.27;;;8.93;;
40913;SDS011;26638;50.990;4.676;2024-02-16T09:14:42;23.13;;;8.13;;
40913;SDS011;26638;50.990;4.676;2024-02-16T09:17:08;20.45;;;8.50;;
40913;SDS011;26638;50.990;4.676;2024-02-16T09:19:35;16.50;;;8.25;;
40913;SDS011;26638;50.990;4.676;2024-02-16T09:22:00;25.93;;;8.97;;
40913;SDS011;26638;50.990;4.676;2024-02-16T09:24:31;20.05;;;8.80;;
40913;SDS011;26638;50.990;4.676;2024-02-16T09:26:57;20.10;;;7.95;;
40913;SDS011;26638;50.990;4.676;2024-02-16T09:29:28;20.33;;;8.45;;
40913;SDS011;26638;50.990;4.676;2024-02-16T09:31:54;20.73;;;8.63;;
40913;SDS011;26638;50.990;4.676;2024-02-16T09:34:20;17.67;;;7.73;;
40913;SDS011;26638;50.990;4.676;2024-02-16T09:36:46;21.15;;;8.52;;
40913;SDS011;26638;50.990;4.676;2024-02-16T09:39:11;21.70;;;8.63;;
40913;SDS011;26638;50.990;4.676;2024-02-16T09:41:37;25.00;;;8.97;;
40913;SDS011;26638;50.990;4.676;2024-02-16T09:44:06;20.63;;;9.20;;
40913;SDS011;26638;50.990;4.676;2024-02-16T09:46:32;23.60;;;9.23;;
40913;SDS011;26638;50.990;4.676;2024-02-16T09:49:02;23.20;;;9.45;;
40913;SDS011;26638;50.990;4.676;2024-02-16T09:51:29;23.92;;;8.95;;
40913;SDS011;26638;50.990;4.676;2024-02-16T09:53:55;20.90;;;9.10;;
40913;SDS011;26638;50.990;4.676;2024-02-16T09:56:21;19.57;;;8.90;;
40913;SDS011;26638;50.990;4.676;2024-02-16T09:58:49;23.92;;;9.32;;
40913;SDS011;26638;50.990;4.676;2024-02-16T10:01:17;24.20;;;9.88;;
40913;SDS011;26638;50.990;4.676;2024-02-16T10:03:47;21.88;;;9.70;;
40913;SDS011;26638;50.990;4.676;2024-02-16T10:06:14;21.42;;;8.88;;
40913;SDS011;26638;50.990;4.676;2024-02-16T10:08:50;19.52;;;8.55;;
40913;SDS011;26638;50.990;4.676;2024-02-16T10:11:17;23.98;;;9.30;;
40913;SDS011;26638;50.990;4.676;2024-02-16T10:13:57;19.52;;;9.52;;
40913;SDS011;26638;50.990;4.676;2024-02-16T10:16:27;21.20;;;9.57;;
40913;SDS011;26638;50.990;4.676;2024-02-16T10:19:04;27.38;;;9.60;;
40913;SDS011;26638;50.990;4.676;2024-02-16T10:21:31;26.88;;;9.55;;
40913;SDS011;26638;50.990;4.676;2024-02-16T10:24:00;22.67;;;8.63;;
40913;SDS011;26638;50.990;4.676;2024-02-16T10:26:39;29.42;;;9.35;;
40913;SDS011;26638;50.990;4.676;2024-02-16T10:29:05;18.65;;;8.80;;
40913;SDS011;26638;50.990;4.676;2024-02-16T10:31:34;22.88;;;9.15;;
40913;SDS011;26638;50.990;4.676;2024-02-16T10:34:00;26.48;;;8.85;;
40913;SDS011;26638;50.990;4.676;2024-02-16T10:36:31;25.35;;;9.20;;
40913;SDS011;26638;50.990;4.676;2024-02-16T10:38:58;24.27;;;8.95;;
40913;SDS011;26638;50.990;4.676;2024-02-16T10:41:30;24.42;;;9.50;;
40913;SDS011;26638;50.990;4.676;2024-02-16T10:43:59;21.85;;;9.27;;
40913;SDS011;26638;50.990;4.676;2024-02-16T10:46:27;24.55;;;9.25;;
40913;SDS011;26638;50.990;4.676;2024-02-16T10:48:56;21.45;;;9.15;;
40913;SDS011;26638;50.990;4.676;2024-02-16T10:51:31;31.13;;;9.50;;
40913;SDS011;26638;50.990;4.676;2024-02-16T10:54:04;24.38;;;9.90;;
40913;SDS011;26638;50.990;4.676;2024-02-16T10:56:32;26.52;;;9.40;;
40913;SDS011;26638;50.990;4.676;2024-02-16T10:59:00;24.85;;;9.48;;
40913;SDS011;26638;50.990;4.676;2024-02-16T11:01:27;22.88;;;9.35;;
40913;SDS011;26638;50.990;4.676;2024-02-16T11:04:06;22.92;;;10.13;;
40913;SDS011;26638;50.990;4.676;2024-02-16T11:06:55;22.40;;;9.88;;
40913;SDS011;26638;50.990;4.676;2024-02-16T11:12:04;23.40;;;9.87;;
40913;SDS011;26638;50.990;4.676;2024-02-16T11:14:44;23.70;;;10.00;;
40913;SDS011;26638;50.990;4.676;2024-02-16T11:17:14;24.13;;;10.50;;
40913;SDS011;26638;50.990;4.676;2024-02-16T11:19:45;18.63;;;9.90;;
40913;SDS011;26638;50.990;4.676;2024-02-16T11:22:14;22.88;;;10.05;;
40913;SDS011;26638;50.990;4.676;2024-02-16T11:24:45;28.23;;;11.10;;
40913;SDS011;26638;50.990;4.676;2024-02-16T11:27:12;21.83;;;11.45;;
40913;SDS011;26638;50.990;4.676;2024-02-16T11:29:40;28.60;;;11.60;;
40913;SDS011;26638;50.990;4.676;2024-02-16T11:32:06;27.13;;;11.93;;
40913;SDS011;26638;50.990;4.676;2024-02-16T11:34:33;21.42;;;11.88;;
40913;SDS011;26638;50.990;4.676;2024-02-16T11:37:00;24.20;;;13.85;;
40913;SDS011;26638;50.990;4.676;2024-02-16T11:39:27;26.08;;;13.88;;
40913;SDS011;26638;50.990;4.676;2024-02-16T11:42:02;26.00;;;15.18;;
40913;SDS011;26638;50.990;4.676;2024-02-16T11:44:30;29.13;;;15.75;;
40913;SDS011;26638;50.990;4.676;2024-02-16T11:46:57;30.30;;;16.85;;
40913;SDS011;26638;50.990;4.676;2024-02-16T11:49:30;26.07;;;15.73;;
40913;SDS011;26638;50.990;4.676;2024-02-16T11:51:58;31.55;;;17.40;;
40913;SDS011;26638;50.990;4.676;2024-02-16T11:54:25;29.27;;;17.05;;
40913;SDS011;26638;50.990;4.676;2024-02-16T11:56:51;29.27;;;18.40;;
40913;SDS011;26638;50.990;4.676;2024-02-16T11:59:20;33.75;;;20.42;;
40913;SDS011;26638;50.990;4.676;2024-02-16T12:04:29;30.13;;;19.00;;
40913;SDS011;26638;50.990;4.676;2024-02-16T12:06:59;27.85;;;18.05;;
40913;SDS011;26638;50.990;4.676;2024-02-16T12:09:26;28.83;;;20.23;;
40913;SDS011;26638;50.990;4.676;2024-02-16T12:11:52;23.20;;;16.75;;
40913;SDS011;26638;50.990;4.676;2024-02-16T12:14:19;28.77;;;19.30;;
40913;SDS011;26638;50.990;4.676;2024-02-16T12:16:57;36.70;;;22.98;;
40913;SDS011;26638;50.990;4.676;2024-02-16T12:19:23;29.25;;;17.90;;
40913;SDS011;26638;50.990;4.676;2024-02-16T12:24:22;25.92;;;17.08;;
40913;SDS011;26638;50.990;4.676;2024-02-16T12:26:48;22.15;;;16.55;;
40913;SDS011;26638;50.990;4.676;2024-02-16T12:29:14;22.23;;;16.75;;
40913;SDS011;26638;50.990;4.676;2024-02-16T12:31:41;26.90;;;18.02;;
40913;SDS011;26638;50.990;4.676;2024-02-16T12:34:09;19.65;;;15.18;;
40913;SDS011;26638;50.990;4.676;2024-02-16T12:36:36;16.90;;;12.53;;
40913;SDS011;26638;50.990;4.676;2024-02-16T12:39:03;15.35;;;12.88;;
40913;SDS011;26638;50.990;4.676;2024-02-16T12:41:29;22.52;;;16.40;;
40913;SDS011;26638;50.990;4.676;2024-02-16T12:43:56;18.95;;;15.60;;
40913;SDS011;26638;50.990;4.676;2024-02-16T12:46:21;24.58;;;16.67;;
40913;SDS011;26638;50.990;4.676;2024-02-16T12:48:47;20.03;;;15.27;;
40913;SDS011;26638;50.990;4.676;2024-02-16T12:51:13;16.27;;;12.75;;
40913;SDS011;26638;50.990;4.676;2024-02-16T12:53:39;17.40;;;14.23;;
40913;SDS011;26638;50.990;4.676;2024-02-16T12:56:08;19.48;;;14.70;;
40913;SDS011;26638;50.990;4.676;2024-02-16T12:58:34;20.47;;;15.97;;
40913;SDS011;26638;50.990;4.676;2024-02-16T13:01:03;17.95;;;14.30;;
40913;SDS011;26638;50.990;4.676;2024-02-16T13:03:36;21.42;;;17.40;;
40913;SDS011;26638;50.990;4.676;2024-02-16T13:06:02;22.40;;;18.23;;
40913;SDS011;26638;50.990;4.676;2024-02-16T13:08:29;23.15;;;18.88;;
40913;SDS011;26638;50.990;4.676;2024-02-16T13:10:55;22.45;;;17.65;;
40913;SDS011;26638;50.990;4.676;2024-02-16T13:13:21;23.73;;;19.00;;
40913;SDS011;26638;50.990;4.676;2024-02-16T13:15:48;29.08;;;21.75;;
40913;SDS011;26638;50.990;4.676;2024-02-16T13:18:14;27.52;;;22.38;;
40913;SDS011;26638;50.990;4.676;2024-02-16T13:20:41;28.50;;;22.95;;
40913;SDS011;26638;50.990;4.676;2024-02-16T13:23:08;29.55;;;24.67;;
40913;SDS011;26638;50.990;4.676;2024-02-16T13:25:34;25.95;;;21.80;;
40913;SDS011;26638;50.990;4.676;2024-02-16T13:28:00;23.92;;;21.23;;
40913;SDS011;26638;50.990;4.676;2024-02-16T13:30:26;29.42;;;24.30;;
40913;SDS011;26638;50.990;4.676;2024-02-16T13:32:53;29.60;;;26.33;;
40913;SDS011;26638;50.990;4.676;2024-02-16T13:35:19;35.08;;;28.27;;
40913;SDS011;26638;50.990;4.676;2024-02-16T13:37:45;41.30;;;32.83;;
40913;SDS011;26638;50.990;4.676;2024-02-16T13:40:10;42.07;;;29.73;;
40913;SDS011;26638;50.990;4.676;2024-02-16T13:42:40;38.83;;;32.88;;
40913;SDS011;26638;50.990;4.676;2024-02-16T13:45:07;33.88;;;30.05;;
40913;SDS011;26638;50.990;4.676;2024-02-16T13:47:33;29.90;;;26.10;;
40913;SDS011;26638;50.990;4.676;2024-02-16T13:49:59;30.30;;;26.40;;
40913;SDS011;26638;50.990;4.676;2024-02-16T13:52:25;31.73;;;28.40;;
40913;SDS011;26638;50.990;4.676;2024-02-16T13:54:51;31.65;;;28.23;;
40913;SDS011;26638;50.990;4.676;2024-02-16T13:57:17;30.65;;;26.40;;
40913;SDS011;26638;50.990;4.676;2024-02-16T13:59:44;37.70;;;29.10;;
40913;SDS011;26638;50.990;4.676;2024-02-16T14:02:10;30.42;;;27.13;;
40913;SDS011;26638;50.990;4.676;2024-02-16T14:04:36;28.97;;;24.40;;
40913;SDS011;26638;50.990;4.676;2024-02-16T14:09:47;24.60;;;20.73;;
40913;SDS011;26638;50.990;4.676;2024-02-16T14:12:13;20.47;;;18.33;;
40913;SDS011;26638;50.990;4.676;2024-02-16T14:14:39;17.45;;;15.15;;
40913;SDS011;26638;50.990;4.676;2024-02-16T14:17:04;16.70;;;14.97;;
40913;SDS011;26638;50.990;4.676;2024-02-16T14:19:30;15.02;;;13.27;;
40913;SDS011;26638;50.990;4.676;2024-02-16T14:21:56;12.23;;;10.93;;
40913;SDS011;26638;50.990;4.676;2024-02-16T14:24:22;14.00;;;10.50;;
40913;SDS011;26638;50.990;4.676;2024-02-16T14:26:47;12.10;;;10.60;;
40913;SDS011;26638;50.990;4.676;2024-02-16T14:29:13;11.35;;;9.80;;
40913;SDS011;26638;50.990;4.676;2024-02-16T14:31:38;14.17;;;10.23;;
40913;SDS011;26638;50.990;4.676;2024-02-16T14:34:05;13.48;;;10.75;;
40913;SDS011;26638;50.990;4.676;2024-02-16T14:36:30;13.38;;;9.15;;
40913;SDS011;26638;50.990;4.676;2024-02-16T14:38:56;12.00;;;8.87;;
40913;SDS011;26638;50.990;4.676;2024-02-16T14:41:22;7.80;;;6.47;;
40913;SDS011;26638;50.990;4.676;2024-02-16T14:43:48;9.57;;;7.50;;
40913;SDS011;26638;50.990;4.676;2024-02-16T14:46:13;10.52;;;7.53;;
40913;SDS011;26638;50.990;4.676;2024-02-16T14:48:40;8.68;;;6.68;;
40913;SDS011;26638;50.990;4.676;2024-02-16T14:51:06;9.50;;;7.10;;
40913;SDS011;26638;50.990;4.676;2024-02-16T14:53:32;9.35;;;7.22;;
40913;SDS011;26638;50.990;4.676;2024-02-16T14:56:01;9.07;;;6.90;;
40913;SDS011;26638;50.990;4.676;2024-02-16T14:58:30;10.48;;;7.63;;
40913;SDS011;26638;50.990;4.676;2024-02-16T15:00:56;9.10;;;7.38;;
40913;SDS011;26638;50.990;4.676;2024-02-16T15:03:22;8.23;;;7.33;;
40913;SDS011;26638;50.990;4.676;2024-02-16T15:05:48;9.63;;;6.90;;
40913;SDS011;26638;50.990;4.676;2024-02-16T15:08:14;8.02;;;6.80;;
40913;SDS011;26638;50.990;4.676;2024-02-16T15:10:39;9.23;;;7.20;;
40913;SDS011;26638;50.990;4.676;2024-02-16T15:13:07;10.35;;;8.60;;
40913;SDS011;26638;50.990;4.676;2024-02-16T15:15:34;9.03;;;8.03;;